Time;durP1;ratioP1;P1;durP2;ratioP2;P2;SDS_P1;SDS_P2;PMS_P1;PMS_P2;Temp;Humidity;BMP_temperature;BMP_pressure;BME280_temperature;BME280_humidity;BME280_pressure;Samples;Min_cycle;Max_cycle;Signal;HPM_P1;HPM_P2
2021/04/15 05:59:28;;;;;;;7.35;5.28;;;;;;;;;;5088662;27;20370;-64
2021/04/15 06:02:03;;;;;;;7.53;4.63;;;;;;;;;;5076627;28;20481;-63
2021/04/15 06:04:32;;;;;;;8.80;5.30;;;;;;;;;;5074971;28;20102;-67
2021/04/15 06:07:01;;;;;;;5.93;4.47;;;;;;;;;;5107400;28;20020;-66
2021/04/15 06:09:26;;;;;;;6.20;4.55;;;;;;;;;;5076842;28;20033;-64
2021/04/15 06:11:56;;;;;;;6.00;4.20;;;;;;;;;;5082730;28;20082;-62
2021/04/15 06:14:31;;;;;;;5.97;3.95;;;;;;;;;;5084230;28;20016;-64
2021/04/15 06:17:02;;;;;;;4.90;3.80;;;;;;;;;;5079448;28;20013;-64
2021/04/15 06:19:27;;;;;;;4.35;3.65;;;;;;;;;;5086235;28;20024;-63
2021/04/15 06:22:03;;;;;;;5.72;4.47;;;;;;;;;;5087961;28;20012;-65
2021/04/15 06:24:29;;;;;;;5.80;4.63;;;;;;;;;;5081951;28;20414;-66
2021/04/15 06:26:57;;;;;;;5.75;4.50;;;;;;;;;;5092778;28;20038;-65
2021/04/15 06:29:28;;;;;;;5.53;4.03;;;;;;;;;;5086116;28;20387;-64
2021/04/15 06:31:57;;;;;;;7.20;4.35;;;;;;;;;;5087074;28;20496;-65
2021/04/15 06:34:23;;;;;;;6.18;4.25;;;;;;;;;;5094452;28;20412;-65
2021/04/15 06:36:59;;;;;;;6.43;5.53;;;;;;;;;;5091963;28;20023;-65
2021/04/15 06:39:30;;;;;;;9.88;6.53;;;;;;;;;;5080033;28;20016;-63
2021/04/15 06:41:59;;;;;;;12.57;8.45;;;;;;;;;;5067402;28;20460;-65
2021/04/15 06:44:34;;;;;;;14.65;9.35;;;;;;;;;;5080254;28;20036;-68
2021/04/15 06:47:00;;;;;;;13.27;8.88;;;;;;;;;;5069051;28;20769;-66
2021/04/15 06:49:35;;;;;;;14.77;9.38;;;;;;;;;;5073010;28;20016;-67
2021/04/15 06:52:00;;;;;;;13.63;10.30;;;;;;;;;;5080683;28;20027;-67
2021/04/15 06:54:29;;;;;;;14.48;10.30;;;;;;;;;;5078092;28;20025;-69
2021/04/15 06:56:58;;;;;;;19.20;9.80;;;;;;;;;;5076891;28;20099;-66
2021/04/15 06:59:33;;;;;;;35.65;10.75;;;;;;;;;;5087130;28;20103;-68
2021/04/15 07:02:02;;;;;;;33.97;10.60;;;;;;;;;;5094001;28;20107;-66
2021/04/15 07:04:27;;;;;;;17.27;11.13;;;;;;;;;;5092159;28;20019;-69
2021/04/15 07:07:03;;;;;;;19.83;11.73;;;;;;;;;;5086569;28;20028;-70
2021/04/15 07:09:38;;;;;;;19.90;11.77;;;;;;;;;;5070934;28;20381;-72
2021/04/15 07:12:04;;;;;;;16.75;11.30;;;;;;;;;;5064328;28;20055;-71
2021/04/15 07:14:40;;;;;;;18.38;11.52;;;;;;;;;;5077510;28;20030;-70
2021/04/15 07:17:09;;;;;;;21.52;13.35;;;;;;;;;;5073562;28;20032;-73
2021/04/15 07:19:37;;;;;;;22.30;10.93;;;;;;;;;;5059574;28;20103;-69
2021/04/15 07:22:03;;;;;;;16.27;11.90;;;;;;;;;;5069593;28;20024;-70
2021/04/15 07:24:38;;;;;;;15.40;11.00;;;;;;;;;;5063602;28;20265;-66
2021/04/15 07:27:13;;;;;;;17.52;10.80;;;;;;;;;;5070494;28;20020;-73
2021/04/15 07:29:48;;;;;;;15.85;10.25;;;;;;;;;;5059732;28;20032;-71
2021/04/15 07:32:26;;;;;;;18.70;11.70;;;;;;;;;;5056047;28;20017;-74
2021/04/15 07:34:53;;;;;;;14.45;10.50;;;;;;;;;;5065861;28;20043;-68
2021/04/15 07:37:28;;;;;;;15.50;10.15;;;;;;;;;;5045319;28;20028;-69
2021/04/15 07:40:01;;;;;;;16.35;10.50;;;;;;;;;;5063541;28;20387;-70
2021/04/15 07:42:36;;;;;;;13.00;9.43;;;;;;;;;;5057393;28;20428;-67
2021/04/15 07:45:07;;;;;;;17.05;9.73;;;;;;;;;;5056903;28;20017;-72
2021/04/15 07:47:42;;;;;;;14.45;9.23;;;;;;;;;;5076488;28;20087;-69
2021/04/15 07:50:17;;;;;;;17.13;10.30;;;;;;;;;;5082477;28;20070;-73
2021/04/15 07:52:52;;;;;;;14.23;9.65;;;;;;;;;;5087962;28;20022;-71
2021/04/15 07:55:27;;;;;;;15.77;9.25;;;;;;;;;;5063098;28;20016;-72
2021/04/15 07:57:56;;;;;;;13.48;9.68;;;;;;;;;;5078892;28;20055;-69
2021/04/15 08:00:22;;;;;;;14.75;8.13;;;;;;;;;;5074254;28;20025;-68
2021/04/15 08:02:51;;;;;;;14.60;8.75;;;;;;;;;;5074770;28;20020;-71
2021/04/15 08:05:26;;;;;;;11.73;8.63;;;;;;;;;;5087924;28;20046;-73
2021/04/15 08:08:01;;;;;;;15.25;8.45;;;;;;;;;;5076062;28;20479;-72
2021/04/15 08:10:29;;;;;;;11.25;8.68;;;;;;;;;;5089281;28;20030;-69
2021/04/15 08:13:02;;;;;;;14.60;10.60;;;;;;;;;;5074103;28;20046;-69
2021/04/15 08:15:32;;;;;;;13.68;9.80;;;;;;;;;;5083095;28;20325;-68
2021/04/15 08:17:58;;;;;;;13.10;9.88;;;;;;;;;;5082725;28;20028;-65
2021/04/15 08:20:34;;;;;;;13.63;9.30;;;;;;;;;;5070884;28;20159;-65
2021/04/15 08:23:09;;;;;;;16.45;8.60;;;;;;;;;;5074563;28;20028;-65
2021/04/15 08:25:43;;;;;;;15.27;8.90;;;;;;;;;;5083117;28;20099;-70
2021/04/15 08:28:12;;;;;;;11.30;8.90;;;;;;;;;;5063279;28;20058;-67
2021/04/15 08:30:39;;;;;;;12.87;8.80;;;;;;;;;;5063171;28;20496;-66
2021/04/15 08:33:12;;;;;;;12.93;8.45;;;;;;;;;;5043881;28;20053;-69
2021/04/15 08:35:39;;;;;;;13.85;8.82;;;;;;;;;;5064884;28;20066;-72
2021/04/15 08:38:16;;;;;;;13.13;8.85;;;;;;;;;;5061703;28;20066;-71
2021/04/15 08:40:54;;;;;;;13.10;9.23;;;;;;;;;;5066462;28;20046;-66
2021/04/15 08:43:37;;;;;;;14.18;9.15;;;;;;;;;;5061940;28;20028;-67
2021/04/15 08:46:13;;;;;;;12.75;8.85;;;;;;;;;;5072260;28;20038;-70
2021/04/15 08:48:45;;;;;;;11.40;8.40;;;;;;;;;;5072106;28;20031;-69
2021/04/15 08:51:19;;;;;;;11.20;9.05;;;;;;;;;;5064216;28;20039;-68
2021/04/15 08:53:46;;;;;;;13.20;10.00;;;;;;;;;;5064010;28;20393;-66
2021/04/15 08:56:15;;;;;;;15.85;10.27;;;;;;;;;;5062698;28;20025;-65
2021/04/15 08:58:50;;;;;;;14.18;10.40;;;;;;;;;;5060003;28;20501;-69
2021/04/15 09:01:25;;;;;;;12.25;9.25;;;;;;;;;;5070371;28;20024;-69
2021/04/15 09:03:50;;;;;;;15.85;9.55;;;;;;;;;;5081135;28;20028;-67
2021/04/15 09:06:19;;;;;;;12.80;8.70;;;;;;;;;;5061670;28;20028;-69
2021/04/15 09:08:45;;;;;;;;;;;;;;;;;;5083837;28;20073;-67
2021/04/15 09:11:14;;;;;;;14.17;9.67;;;;;;;;;;5086207;28;19908;-68
2021/04/15 09:13:40;;;;;;;12.95;9.45;;;;;;;;;;5079512;28;20107;-66
2021/04/15 09:16:11;;;;;;;13.68;9.43;;;;;;;;;;5071202;28;20100;-70
2021/04/15 09:18:39;;;;;;;12.45;8.73;;;;;;;;;;5061918;28;20145;-69
2021/04/15 09:21:06;;;;;;;11.00;6.68;;;;;;;;;;5082436;28;20079;-63
2021/04/15 09:23:45;;;;;;;12.38;7.30;;;;;;;;;;5061007;28;20149;-63
2021/04/15 09:26:16;;;;;;;11.85;4.80;;;;;;;;;;5071095;28;20028;-65
2021/04/15 09:28:54;;;;;;;9.63;7.30;;;;;;;;;;5073407;28;20024;-66
2021/04/15 09:31:32;;;;;;;8.63;6.80;;;;;;;;;;5074904;28;20027;-69
2021/04/15 09:33:57;;;;;;;9.93;7.65;;;;;;;;;;5061254;28;20021;-70
2021/04/15 09:36:28;;;;;;;12.75;8.10;;;;;;;;;;5061665;28;20021;-69
2021/04/15 09:38:54;;;;;;;14.32;7.93;;;;;;;;;;5086266;28;20028;-66
2021/04/15 09:41:29;;;;;;;9.27;7.15;;;;;;;;;;5070391;28;20100;-67
2021/04/15 09:43:55;;;;;;;10.60;6.80;;;;;;;;;;5069539;28;20020;-68
2021/04/15 09:46:31;;;;;;;12.27;7.95;;;;;;;;;;5071197;28;20019;-68
2021/04/15 09:48:59;;;;;;;9.77;7.07;;;;;;;;;;5060536;28;20028;-67
2021/04/15 09:51:25;;;;;;;11.15;7.80;;;;;;;;;;5051858;28;20074;-67
2021/04/15 09:53:51;;;;;;;12.23;8.43;;;;;;;;;;5062533;28;20601;-67
2021/04/15 09:56:26;;;;;;;11.75;8.55;;;;;;;;;;5071749;28;20125;-69
2021/04/15 09:59:01;;;;;;;14.02;8.70;;;;;;;;;;5071385;28;20060;-69
2021/04/15 10:01:32;;;;;;;16.70;9.32;;;;;;;;;;5070348;28;20048;-67
2021/04/15 10:04:01;;;;;;;13.20;8.65;;;;;;;;;;5054125;28;20017;-66
2021/04/15 10:06:30;;;;;;;12.70;8.80;;;;;;;;;;5050102;28;20013;-69
2021/04/15 10:09:03;;;;;;;12.30;9.15;;;;;;;;;;5049839;28;20046;-67
2021/04/15 10:11:32;;;;;;;12.02;8.10;;;;;;;;;;5052100;28;20104;-69
2021/04/15 10:14:08;;;;;;;13.20;8.13;;;;;;;;;;5055817;28;20017;-66
2021/04/15 10:16:38;;;;;;;11.52;8.13;;;;;;;;;;5059100;28;20021;-68
2021/04/15 10:19:21;;;;;;;9.82;7.40;;;;;;;;;;5059177;28;20459;-69
2021/04/15 10:21:56;;;;;;;11.05;8.20;;;;;;;;;;5063866;28;20048;-67
2021/04/15 10:24:31;;;;;;;8.60;6.70;;;;;;;;;;5062392;28;20496;-67
2021/04/15 10:27:06;;;;;;;12.77;7.32;;;;;;;;;;5063017;23;20017;-65
2021/04/15 10:29:41;;;;;;;11.25;7.32;;;;;;;;;;5026874;28;20105;-68
2021/04/15 10:32:16;;;;;;;9.27;7.20;;;;;;;;;;5030585;28;20017;-68
2021/04/15 10:34:55;;;;;;;12.63;7.90;;;;;;;;;;5031338;28;20101;-66
2021/04/15 10:37:30;;;;;;;10.48;7.70;;;;;;;;;;5029778;28;20022;-66
2021/04/15 10:39:56;;;;;;;8.93;6.55;;;;;;;;;;5028280;28;20026;-66
2021/04/15 10:42:29;;;;;;;8.50;6.85;;;;;;;;;;5026164;28;20024;-65
2021/04/15 10:45:02;;;;;;;10.27;7.28;;;;;;;;;;5030261;28;20021;-66
2021/04/15 10:47:37;;;;;;;9.63;7.55;;;;;;;;;;5050904;28;20013;-67
2021/04/15 10:50:12;;;;;;;8.55;6.53;;;;;;;;;;5038312;28;20017;-69
2021/04/15 10:52:47;;;;;;;10.77;7.88;;;;;;;;;;5031789;28;20105;-68
2021/04/15 10:55:13;;;;;;;9.75;6.78;;;;;;;;;;5040999;28;20092;-67
2021/04/15 10:57:39;;;;;;;10.52;7.53;;;;;;;;;;5039705;28;20033;-67
2021/04/15 11:00:14;;;;;;;9.68;6.57;;;;;;;;;;5027312;28;20147;-66
2021/04/15 11:02:49;;;;;;;6.70;5.47;;;;;;;;;;5041229;28;20044;-65
2021/04/15 11:05:16;;;;;;;7.75;6.10;;;;;;;;;;5049952;28;20067;-66
2021/04/15 11:07:42;;;;;;;8.13;5.97;;;;;;;;;;5037933;28;20016;-72
2021/04/15 11:10:10;;;;;;;10.18;6.25;;;;;;;;;;5028564;28;20059;-74
2021/04/15 11:12:36;;;;;;;10.30;6.20;;;;;;;;;;5046174;28;20092;-72
2021/04/15 11:15:11;;;;;;;8.23;6.57;;;;;;;;;;5020042;28;20156;-62
2021/04/15 11:17:41;;;;;;;5.95;4.82;;;;;;;;;;5021787;28;20108;-61
2021/04/15 11:20:10;;;;;;;8.10;5.63;;;;;;;;;;5048814;28;20178;-62
2021/04/15 11:22:37;;;;;;;8.77;5.93;;;;;;;;;;5041424;28;20029;-61
2021/04/15 11:25:12;;;;;;;11.18;7.07;;;;;;;;;;5049392;28;20013;-62
2021/04/15 11:27:37;;;;;;;10.98;6.40;;;;;;;;;;5021364;28;20052;-62
2021/04/15 11:30:03;;;;;;;9.32;6.80;;;;;;;;;;5027696;28;20022;-63
2021/04/15 11:32:38;;;;;;;9.52;6.95;;;;;;;;;;5043820;28;20017;-62
2021/04/15 11:35:07;;;;;;;9.95;7.03;;;;;;;;;;5019702;28;20064;-63
2021/04/15 11:37:32;;;;;;;;;;;;;;;;;;5031751;28;20028;-62
2021/04/15 11:40:02;;;;;;;9.67;7.03;;;;;;;;;;5039584;28;19916;-63
2021/04/15 11:42:27;;;;;;;;;;;;;;;;;;5041982;28;20476;-62
2021/04/15 11:44:55;;;;;;;8.48;6.93;;;;;;;;;;5044952;28;19913;-62
2021/04/15 11:47:25;;;;;;;11.13;7.30;;;;;;;;;;5025749;28;20030;-62
2021/04/15 11:49:52;;;;;;;13.23;6.80;;;;;;;;;;5007065;28;20096;-63
2021/04/15 11:52:19;;;;;;;11.27;7.18;;;;;;;;;;5023969;28;20393;-63
2021/04/15 11:54:54;;;;;;;11.80;6.55;;;;;;;;;;5031078;28;20049;-73
2021/04/15 11:57:19;;;;;;;9.75;6.65;;;;;;;;;;5030271;28;20026;-62
2021/04/15 11:59:54;;;;;;;10.45;6.95;;;;;;;;;;5042133;28;20023;-64
2021/04/15 12:02:29;;;;;;;8.38;5.45;;;;;;;;;;5024430;28;20126;-64
2021/04/15 12:05:08;;;;;;;9.25;5.30;;;;;;;;;;5034880;28;20414;-64
2021/04/15 12:07:34;;;;;;;6.57;5.73;;;;;;;;;;5013550;28;20031;-64
2021/04/15 12:09:59;;;;;;;5.88;4.80;;;;;;;;;;5012881;28;20267;-64
2021/04/15 12:12:25;;;;;;;7.60;5.35;;;;;;;;;;5008217;28;20057;-65
2021/04/15 12:14:50;;;;;;;7.20;4.78;;;;;;;;;;5039130;28;20021;-65
2021/04/15 12:17:28;;;;;;;5.70;4.35;;;;;;;;;;5017443;28;20076;-65
2021/04/15 12:19:57;;;;;;;6.47;4.35;;;;;;;;;;5042594;28;20025;-65
2021/04/15 12:22:22;;;;;;;6.97;4.90;;;;;;;;;;5026244;28;20041;-64
2021/04/15 12:24:53;;;;;;;6.35;5.20;;;;;;;;;;5028468;28;20036;-65
2021/04/15 12:27:21;;;;;;;7.38;4.50;;;;;;;;;;5030160;28;20056;-64
2021/04/15 12:29:51;;;;;;;5.45;4.25;;;;;;;;;;5029724;28;20017;-65
2021/04/15 12:32:26;;;;;;;5.78;4.47;;;;;;;;;;5018177;28;20021;-64
2021/04/15 12:34:54;;;;;;;4.90;4.00;;;;;;;;;;5029740;28;20029;-64
2021/04/15 12:37:28;;;;;;;6.53;4.90;;;;;;;;;;5031354;28;20048;-64
2021/04/15 12:40:05;;;;;;;8.52;5.82;;;;;;;;;;5041178;28;20036;-63
2021/04/15 12:42:36;;;;;;;9.95;5.05;;;;;;;;;;5036299;28;20044;-60
2021/04/15 12:45:02;;;;;;;7.72;5.80;;;;;;;;;;5031450;28;20018;-64
2021/04/15 12:47:30;;;;;;;10.90;5.40;;;;;;;;;;5021179;28;20013;-64
2021/04/15 12:49:56;;;;;;;7.45;5.82;;;;;;;;;;5021659;28;20029;-64
2021/04/15 12:52:23;;;;;;;8.85;6.45;;;;;;;;;;5032043;28;20168;-66
2021/04/15 12:54:48;;;;;;;6.90;6.03;;;;;;;;;;5035650;28;20037;-63
2021/04/15 12:57:14;;;;;;;7.78;5.85;;;;;;;;;;5020319;28;20014;-63
2021/04/15 12:59:42;;;;;;;9.57;6.70;;;;;;;;;;5017393;28;20513;-64
2021/04/15 13:02:11;;;;;;;6.57;5.88;;;;;;;;;;5015566;28;20033;-63
2021/04/15 13:04:37;;;;;;;7.75;6.03;;;;;;;;;;5014467;28;20013;-64
2021/04/15 13:07:03;;;;;;;8.27;5.80;;;;;;;;;;5031696;28;20021;-60
2021/04/15 13:09:31;;;;;;;6.43;5.30;;;;;;;;;;5036611;28;20372;-68
2021/04/15 13:11:57;;;;;;;9.10;6.10;;;;;;;;;;5021989;28;20017;-67
2021/04/15 13:14:32;;;;;;;6.97;5.53;;;;;;;;;;5021325;28;20021;-72
2021/04/15 13:16:57;;;;;;;7.38;5.75;;;;;;;;;;5003103;28;20022;-61
2021/04/15 13:19:23;;;;;;;5.07;4.30;;;;;;;;;;5026145;28;20474;-72
2021/04/15 13:21:58;;;;;;;7.40;4.50;;;;;;;;;;5014866;28;20917;-71
2021/04/15 13:24:33;;;;;;;5.20;4.00;;;;;;;;;;5034455;28;20020;-66
2021/04/15 13:27:18;;;;;;;5.38;3.90;;;;;;;;;;5025251;28;20488;-68
2021/04/15 13:30:03;;;;;;;5.03;3.85;;;;;;;;;;5020867;28;20013;-65
2021/04/15 13:32:48;;;;;;;6.68;3.60;;;;;;;;;;5022879;28;20033;-65
2021/04/15 13:35:23;;;;;;;7.03;4.05;;;;;;;;;;5030048;28;20026;-62
2021/04/15 13:37:48;;;;;;;9.23;4.55;;;;;;;;;;5036835;28;20044;-61
2021/04/15 13:40:23;;;;;;;7.90;3.72;;;;;;;;;;5013073;28;20659;-60
2021/04/15 13:42:55;;;;;;;9.38;4.30;;;;;;;;;;5025775;28;20409;-65
2021/04/15 13:45:32;;;;;;;8.93;4.65;;;;;;;;;;5021285;28;20465;-62
2021/04/15 13:48:00;;;;;;;10.15;4.30;;;;;;;;;;5030728;28;20021;-72
2021/04/15 13:50:36;;;;;;;8.30;4.50;;;;;;;;;;5040197;28;20026;-72
2021/04/15 13:53:21;;;;;;;8.30;4.57;;;;;;;;;;5046049;28;20029;-65
2021/04/15 13:55:47;;;;;;;8.95;4.20;;;;;;;;;;5000210;28;20528;-65
2021/04/15 13:58:31;;;;;;;5.60;3.88;;;;;;;;;;5001460;28;20485;-66
2021/04/15 14:00:57;;;;;;;6.07;4.15;;;;;;;;;;5013285;28;20028;-66
2021/04/15 14:03:32;;;;;;;5.32;3.58;;;;;;;;;;5030718;28;20021;-73
2021/04/15 14:06:07;;;;;;;3.17;2.80;;;;;;;;;;5010185;28;20033;-66
2021/04/15 14:08:42;;;;;;;2.95;2.40;;;;;;;;;;5042491;28;20013;-68
2021/04/15 14:11:17;;;;;;;3.03;2.60;;;;;;;;;;5000414;28;20033;-68
2021/04/15 14:13:42;;;;;;;3.00;2.42;;;;;;;;;;5013009;28;20068;-68
2021/04/15 14:16:09;;;;;;;3.10;2.38;;;;;;;;;;5031131;28;20468;-68
2021/04/15 14:18:35;;;;;;;2.53;2.33;;;;;;;;;;5036627;28;20080;-67
2021/04/15 14:21:10;;;;;;;3.45;2.30;;;;;;;;;;5040659;28;20058;-67
